Time;durP1;ratioP1;P1;durP2;ratioP2;P2;SDS_P1;SDS_P2;PMS_P1;PMS_P2;Temp;Humidity;BMP_temperature;BMP_pressure;BME280_temperature;BME280_humidity;BME280_pressure;Samples;Min_cycle;Max_cycle;Signal;HPM_P1;HPM_P2
2021/01/18 00:01:58;;;;;;;24.90;15.57;;;2.10;99.90;;;;;;5075300;28;20769;-84
2021/01/18 00:04:24;;;;;;;30.97;18.13;;;2.10;99.90;;;;;;5079642;28;20233;-85
2021/01/18 00:06:52;;;;;;;32.70;18.40;;;2.30;99.90;;;;;;5052850;28;20286;-85
2021/01/18 00:09:19;;;;;;;31.60;21.10;;;2.60;99.90;;;;;;5072392;28;20250;-85
2021/01/18 00:11:45;;;;;;;24.80;17.00;;;2.80;99.90;;;;;;5093224;28;20231;-85
2021/01/18 00:14:12;;;;;;;22.37;14.90;;;2.70;99.90;;;;;;5093262;28;20244;-84
2021/01/18 00:16:38;;;;;;;23.27;15.50;;;2.40;99.90;;;;;;5091546;28;20220;-84
2021/01/18 00:19:05;;;;;;;24.10;15.57;;;2.10;99.90;;;;;;5074104;28;20321;-84
2021/01/18 00:21:31;;;;;;;23.73;15.43;;;2.00;99.90;;;;;;5079999;28;20258;-85
2021/01/18 00:23:58;;;;;;;29.50;18.00;;;2.00;99.90;;;;;;5086117;28;20258;-84
2021/01/18 00:26:25;;;;;;;29.27;18.57;;;2.10;99.90;;;;;;5075555;28;20672;-85
2021/01/18 00:28:51;;;;;;;33.80;20.27;;;2.30;99.90;;;;;;5075247;28;20238;-84
2021/01/18 00:31:18;;;;;;;26.80;19.70;;;2.60;99.90;;;;;;5075633;28;20227;-84
2021/01/18 00:33:44;;;;;;;18.03;11.53;;;2.70;99.90;;;;;;5074866;28;20247;-85
2021/01/18 00:36:10;;;;;;;18.57;11.40;;;2.10;99.90;;;;;;5075051;28;20259;-84
2021/01/18 00:38:37;;;;;;;19.00;12.03;;;1.90;99.90;;;;;;5075469;28;20259;-84
2021/01/18 00:41:05;;;;;;;25.77;16.00;;;1.80;99.90;;;;;;5074729;28;20199;-84
2021/01/18 00:43:32;;;;;;;31.37;20.53;;;1.90;99.90;;;;;;5075178;28;20218;-84
2021/01/18 00:45:58;;;;;;;36.37;22.90;;;2.20;99.90;;;;;;5075081;28;20192;-84
2021/01/18 00:48:25;;;;;;;34.07;22.57;;;2.50;99.90;;;;;;5072667;28;20198;-84
2021/01/18 00:50:52;;;;;;;35.20;21.97;;;2.60;99.90;;;;;;5054922;28;20229;-84
2021/01/18 00:53:18;;;;;;;27.83;18.37;;;2.70;99.90;;;;;;5055156;28;20199;-84
2021/01/18 00:55:46;;;;;;;26.67;16.17;;;2.50;99.90;;;;;;5054784;28;20683;-84
2021/01/18 00:58:14;;;;;;;22.80;13.87;;;2.30;99.90;;;;;;5066953;28;20577;-83
2021/01/18 01:00:41;;;;;;;24.30;16.73;;;2.10;99.90;;;;;;5075022;28;20235;-84
2021/01/18 01:03:07;;;;;;;28.80;21.03;;;2.10;99.90;;;;;;5060253;28;20223;-84
2021/01/18 01:05:34;;;;;;;36.00;23.43;;;2.30;99.90;;;;;;5068356;28;20698;-84
2021/01/18 01:08:01;;;;;;;22.83;15.83;;;2.50;99.90;;;;;;5076891;28;20233;-84
2021/01/18 01:10:31;;;;;;;19.80;12.63;;;2.30;99.90;;;;;;5073272;28;20270;-84
2021/01/18 01:12:58;;;;;;;17.77;10.93;;;2.00;99.90;;;;;;5074632;28;20294;-84
2021/01/18 01:15:27;;;;;;;21.23;13.67;;;1.70;99.90;;;;;;5077234;28;20298;-84
2021/01/18 01:17:53;;;;;;;21.13;13.27;;;1.60;99.90;;;;;;5073592;28;20644;-84
2021/01/18 01:20:21;;;;;;;19.40;12.67;;;1.50;99.90;;;;;;5072556;28;20685;-84
2021/01/18 01:22:48;;;;;;;22.57;12.73;;;1.50;99.90;;;;;;5061764;28;20248;-84
2021/01/18 01:25:16;;;;;;;24.20;13.37;;;1.60;99.90;;;;;;5076573;28;20293;-84
2021/01/18 01:27:44;;;;;;;23.80;14.10;;;1.60;99.90;;;;;;5095076;28;20287;-84
2021/01/18 01:30:13;;;;;;;27.43;17.73;;;1.70;99.90;;;;;;5093515;28;20232;-84
2021/01/18 01:32:42;;;;;;;25.97;16.70;;;1.90;99.90;;;;;;5081876;28;20228;-84
2021/01/18 01:35:11;;;;;;;18.20;11.90;;;2.00;99.90;;;;;;5073960;28;20241;-84
2021/01/18 01:37:38;;;;;;;18.17;11.97;;;1.70;99.90;;;;;;5074551;28;20253;-84
2021/01/18 01:40:07;;;;;;;20.93;11.07;;;1.40;99.90;;;;;;5074154;28;20226;-84
2021/01/18 01:42:33;;;;;;;14.40;10.30;;;1.30;99.90;;;;;;5074158;28;20649;-84
2021/01/18 01:45:00;;;;;;;17.83;11.33;;;1.30;99.90;;;;;;5073607;28;20706;-84
2021/01/18 01:47:30;;;;;;;16.00;11.30;;;1.20;99.90;;;;;;5073545;28;20755;-84
2021/01/18 01:50:00;;;;;;;22.07;12.20;;;1.30;99.90;;;;;;5074535;28;20290;-84
2021/01/18 01:52:29;;;;;;;22.80;15.23;;;1.30;99.90;;;;;;5054039;28;20245;-84
2021/01/18 01:55:00;;;;;;;30.23;19.57;;;1.40;99.90;;;;;;5054111;28;20287;-85
2021/01/18 01:57:29;;;;;;;33.17;23.47;;;1.60;99.90;;;;;;5054260;28;20191;-84
2021/01/18 01:59:58;;;;;;;43.90;23.87;;;1.90;99.90;;;;;;5060906;28;20634;-84
2021/01/18 02:02:25;;;;;;;38.87;24.70;;;2.10;99.90;;;;;;5063406;28;20241;-84
2021/01/18 02:04:52;;;;;;;38.90;26.20;;;2.20;99.90;;;;;;5075445;28;20219;-84
2021/01/18 02:07:23;;;;;;;38.03;25.47;;;2.30;99.90;;;;;;5064083;28;20232;-84
2021/01/18 02:09:50;;;;;;;29.63;19.77;;;2.30;99.90;;;;;;5053695;28;20229;-85
2021/01/18 02:12:17;;;;;;;25.53;18.20;;;2.00;99.90;;;;;;5065593;28;20315;-84
2021/01/18 02:14:58;;;;;;;25.23;17.50;;;1.60;99.90;;;;;;5066626;28;20312;-85
2021/01/18 02:17:33;;;;;;;20.53;13.93;;;1.40;99.90;;;;;;5072306;28;20266;-85
2021/01/18 02:20:24;;;;;;;22.10;14.17;;;1.10;99.90;;;;;;5062761;28;20712;-85
2021/01/18 02:23:33;;;;;;;21.33;12.90;;;1.00;99.90;;;;;;5045411;28;20255;-84
2021/01/18 02:26:03;;;;;;;21.37;12.30;;;0.90;99.90;;;;;;5062991;28;20297;-84
2021/01/18 02:29:05;;;;;;;20.03;12.10;;;0.90;99.90;;;;;;5061809;28;20307;-84
2021/01/18 02:31:58;;;;;;;18.47;12.20;;;0.90;99.90;;;;;;4996241;28;20216;-84
2021/01/18 02:34:52;;;;;;;17.97;12.70;;;0.90;99.90;;;;;;4991940;28;20261;-83
2021/01/18 02:37:54;;;;;;;17.73;12.43;;;0.90;99.90;;;;;;4994547;28;20198;-83
2021/01/18 02:40:28;;;;;;;20.90;12.60;;;0.90;99.90;;;;;;5006222;28;20228;-84
2021/01/18 02:42:59;;;;;;;19.20;13.57;;;0.90;99.90;;;;;;5009974;28;20283;-83
2021/01/18 02:45:27;;;;;;;25.27;14.90;;;1.00;99.90;;;;;;4991648;28;20663;-83
2021/01/18 02:47:54;;;;;;;22.23;14.87;;;1.00;99.90;;;;;;4991529;28;20282;-84
2021/01/18 02:50:22;;;;;;;26.43;16.20;;;1.00;99.90;;;;;;4991475;28;20739;-83
2021/01/18 02:52:50;;;;;;;23.77;17.33;;;1.00;99.90;;;;;;4991524;28;20234;-84
2021/01/18 02:55:17;;;;;;;26.00;16.63;;;1.10;99.90;;;;;;4991362;28;20724;-83
2021/01/18 02:57:45;;;;;;;26.30;16.77;;;1.10;99.90;;;;;;4991275;28;20548;-84
2021/01/18 03:00:15;;;;;;;23.27;16.00;;;1.00;99.90;;;;;;5002190;28;20336;-84
2021/01/18 03:02:47;;;;;;;20.83;14.73;;;0.80;99.90;;;;;;5010697;28;20253;-84
2021/01/18 03:05:23;;;;;;;21.80;14.37;;;0.70;99.90;;;;;;5014695;28;20286;-83
2021/01/18 03:08:01;;;;;;;22.77;13.90;;;0.60;99.90;;;;;;5068048;28;20204;-84
2021/01/18 03:10:36;;;;;;;18.70;14.07;;;0.70;99.90;;;;;;5052610;28;20227;-83
2021/01/18 03:13:06;;;;;;;18.50;13.87;;;0.70;99.90;;;;;;5059695;28;20610;-84
2021/01/18 03:15:37;;;;;;;26.70;17.17;;;0.70;99.90;;;;;;5072666;28;20198;-84
2021/01/18 03:18:07;;;;;;;26.70;17.37;;;1.00;99.90;;;;;;5070703;28;20252;-84
2021/01/18 03:20:35;;;;;;;28.30;18.03;;;1.20;99.90;;;;;;5081717;28;20218;-84
2021/01/18 03:23:06;;;;;;;26.67;17.87;;;1.20;99.90;;;;;;5088472;28;20306;-84
2021/01/18 03:25:45;;;;;;;27.07;18.30;;;1.30;99.90;;;;;;5071119;28;20200;-84
2021/01/18 03:28:11;;;;;;;26.20;17.30;;;1.10;99.90;;;;;;5072512;28;20220;-84
2021/01/18 03:30:38;;;;;;;26.00;16.80;;;1.00;99.90;;;;;;5072450;28;20290;-84
2021/01/18 03:33:04;;;;;;;24.90;16.50;;;0.90;99.90;;;;;;5056901;28;20224;-84
2021/01/18 03:35:31;;;;;;;23.23;16.47;;;0.80;99.90;;;;;;5052077;28;20228;-84
2021/01/18 03:37:58;;;;;;;22.17;16.37;;;0.70;99.90;;;;;;5067577;28;20235;-84
2021/01/18 03:40:27;;;;;;;26.23;17.13;;;0.70;99.90;;;;;;5072568;28;20257;-84
2021/01/18 03:42:55;;;;;;;24.83;16.87;;;0.70;99.90;;;;;;5072215;28;20637;-83
2021/01/18 03:45:21;;;;;;;22.00;16.40;;;0.70;99.90;;;;;;5072473;28;20203;-84
2021/01/18 03:47:48;;;;;;;24.73;17.37;;;0.70;99.90;;;;;;5072164;28;20203;-83
2021/01/18 03:50:16;;;;;;;27.70;17.23;;;0.60;99.90;;;;;;5072365;28;20199;-84
2021/01/18 03:52:46;;;;;;;36.73;24.57;;;0.70;99.90;;;;;;5058997;28;20238;-84
2021/01/18 03:55:12;;;;;;;30.20;21.00;;;0.70;99.90;;;;;;5059685;28;20238;-84
2021/01/18 03:57:40;;;;;;;23.17;16.60;;;0.50;99.90;;;;;;5075969;28;20272;-84
2021/01/18 04:00:07;;;;;;;22.20;15.57;;;0.40;99.90;;;;;;5075990;28;20226;-84
2021/01/18 04:02:34;;;;;;;21.67;15.47;;;0.30;99.90;;;;;;5075515;28;20647;-84
2021/01/18 04:05:01;;;;;;;20.37;15.40;;;0.20;99.90;;;;;;5076089;28;20234;-84
2021/01/18 04:07:27;;;;;;;22.97;16.47;;;0.20;99.90;;;;;;5075836;28;20237;-83
2021/01/18 04:09:53;;;;;;;27.00;16.50;;;0.20;99.90;;;;;;5080891;28;20223;-83
2021/01/18 04:12:20;;;;;;;25.03;16.70;;;0.20;99.90;;;;;;5095584;28;20233;-84
2021/01/18 04:14:48;;;;;;;29.93;18.47;;;0.20;99.90;;;;;;5086472;28;20233;-83
2021/01/18 04:17:14;;;;;;;28.00;18.17;;;0.20;99.90;;;;;;5072276;28;20196;-83
2021/01/18 04:19:41;;;;;;;28.97;20.00;;;0.20;99.90;;;;;;5064370;28;20652;-84
2021/01/18 04:22:07;;;;;;;31.10;21.17;;;0.10;99.90;;;;;;5067478;28;20281;-84
2021/01/18 04:24:34;;;;;;;32.77;19.97;;;0.20;99.90;;;;;;5075551;28;20277;-83
2021/01/18 04:27:00;;;;;;;26.40;18.20;;;0.20;99.90;;;;;;5089861;28;20239;-83
2021/01/18 04:29:27;;;;;;;29.13;18.07;;;0.10;99.90;;;;;;5095968;28;20229;-83
2021/01/18 04:31:55;;;;;;;26.77;18.07;;;0.00;99.90;;;;;;5088755;28;20206;-84
2021/01/18 04:34:21;;;;;;;28.40;18.40;;;0.00;99.90;;;;;;5070754;28;20230;-84
2021/01/18 04:36:48;;;;;;;28.27;19.03;;;0.00;99.90;;;;;;5055143;28;20231;-84
2021/01/18 04:39:15;;;;;;;29.53;18.33;;;0.00;99.90;;;;;;5064536;28;20201;-83
2021/01/18 04:41:43;;;;;;;30.27;19.83;;;0.00;99.90;;;;;;5075179;28;20743;-82
2021/01/18 04:44:11;;;;;;;34.70;20.97;;;0.10;99.90;;;;;;5075304;28;20265;-83
2021/01/18 04:46:40;;;;;;;33.10;20.07;;;0.20;99.90;;;;;;5075108;28;20237;-83
2021/01/18 04:49:08;;;;;;;31.17;20.17;;;0.20;99.90;;;;;;5097944;28;20664;-83
2021/01/18 04:51:41;;;;;;;29.33;20.57;;;0.20;99.90;;;;;;5070782;28;20229;-83
2021/01/18 04:54:13;;;;;;;33.10;20.20;;;0.20;99.90;;;;;;5054729;28;20734;-84
2021/01/18 04:57:09;;;;;;;31.73;19.67;;;0.10;99.90;;;;;;5055403;28;20317;-83
2021/01/18 04:59:42;;;;;;;38.70;22.43;;;0.10;99.90;;;;;;5055181;28;20198;-84
2021/01/18 05:02:13;;;;;;;33.23;20.83;;;0.00;99.90;;;;;;5054850;28;20227;-83
2021/01/18 05:04:42;;;;;;;35.97;23.13;;;0.00;99.90;;;;;;5053962;28;20685;-83
2021/01/18 05:07:48;;;;;;;35.77;22.87;;;0.10;99.90;;;;;;5086815;28;20226;-84
2021/01/18 05:10:25;;;;;;;36.03;23.43;;;0.00;99.90;;;;;;5055038;28;20200;-83
2021/01/18 05:12:55;;;;;;;37.13;24.90;;;-0.20;99.90;;;;;;5056493;28;20223;-84
2021/01/18 05:15:23;;;;;;;34.67;22.73;;;-0.20;99.90;;;;;;5054803;28;20640;-83
2021/01/18 05:17:50;;;;;;;36.80;21.47;;;-0.10;99.90;;;;;;5085510;28;20232;-83
2021/01/18 05:20:19;;;;;;;38.10;20.87;;;-0.10;99.90;;;;;;5066646;28;20241;-83
2021/01/18 05:22:48;;;;;;;46.33;28.00;;;-0.10;99.90;;;;;;5074411;28;20254;-83
2021/01/18 05:25:17;;;;;;;45.57;26.63;;;-0.10;99.90;;;;;;5064013;28;20206;-83
2021/01/18 05:28:06;;;;;;;42.27;26.23;;;-0.20;99.90;;;;;;5059320;28;20549;-83
2021/01/18 05:30:34;;;;;;;58.23;25.97;;;-0.30;99.90;;;;;;5074425;28;20201;-84
2021/01/18 05:33:06;;;;;;;47.33;24.73;;;-0.40;99.90;;;;;;5074518;28;20222;-83
2021/01/18 05:35:34;;;;;;;37.73;23.30;;;-0.40;99.90;;;;;;5074735;28;20247;-83
2021/01/18 05:38:03;;;;;;;40.00;22.63;;;-0.40;99.90;;;;;;5074006;28;20227;-83
2021/01/18 05:40:35;;;;;;;37.13;21.70;;;-0.40;99.90;;;;;;5074709;28;20663;-83
2021/01/18 05:43:03;;;;;;;33.43;20.80;;;-0.30;99.90;;;;;;5073213;28;20272;-83
2021/01/18 05:45:31;;;;;;;35.93;20.53;;;-0.40;99.90;;;;;;5086426;28;20245;-83
2021/01/18 05:47:59;;;;;;;31.77;19.80;;;-0.30;99.90;;;;;;5054522;28;20239;-83
2021/01/18 05:50:26;;;;;;;33.17;20.80;;;-0.30;99.90;;;;;;5054169;28;20286;-84
2021/01/18 05:52:54;;;;;;;29.13;19.57;;;-0.30;99.90;;;;;;5054168;28;20203;-84
2021/01/18 05:55:24;;;;;;;38.57;20.30;;;-0.40;99.90;;;;;;5084631;28;20236;-84
2021/01/18 05:57:52;;;;;;;28.33;19.37;;;-0.40;99.90;;;;;;5093014;28;20232;-84
2021/01/18 06:00:30;;;;;;;29.40;19.17;;;-0.40;99.90;;;;;;5057752;28;20199;-84
2021/01/18 06:02:57;;;;;;;31.17;19.90;;;-0.40;99.90;;;;;;5059791;28;20213;-80
2021/01/18 06:05:24;;;;;;;29.37;19.20;;;-0.40;99.90;;;;;;5073276;28;20234;-81
2021/01/18 06:07:51;;;;;;;27.17;17.70;;;-0.40;99.90;;;;;;5073783;28;20238;-81
2021/01/18 06:10:20;;;;;;;28.17;18.60;;;-0.30;99.90;;;;;;5069571;28;20218;-81
2021/01/18 06:12:46;;;;;;;29.53;18.97;;;-0.30;99.90;;;;;;5073895;28;20226;-80
2021/01/18 06:15:15;;;;;;;25.57;19.10;;;-0.30;99.90;;;;;;5065868;28;20279;-81
2021/01/18 06:17:45;;;;;;;25.63;19.07;;;-0.20;99.90;;;;;;5071564;28;20231;-81
2021/01/18 06:20:19;;;;;;;29.27;19.70;;;-0.10;99.90;;;;;;5060644;28;20631;-81
2021/01/18 06:22:50;;;;;;;28.13;18.97;;;0.00;99.90;;;;;;5054527;28;20223;-80
2021/01/18 06:25:17;;;;;;;29.90;19.83;;;0.00;99.90;;;;;;5073367;28;20581;-81
2021/01/18 06:27:44;;;;;;;28.50;20.63;;;0.10;99.90;;;;;;5078358;28;20293;-80
2021/01/18 06:30:25;;;;;;;29.27;20.37;;;0.20;99.90;;;;;;5056873;28;20209;-79
2021/01/18 06:32:54;;;;;;;31.97;21.13;;;0.20;99.90;;;;;;5065788;28;20197;-79
2021/01/18 06:35:26;;;;;;;32.73;19.90;;;0.20;99.90;;;;;;5067728;28;20286;-82
2021/01/18 06:38:01;;;;;;;34.30;20.70;;;0.20;99.90;;;;;;5066891;28;20287;-81
2021/01/18 06:40:29;;;;;;;33.70;20.27;;;0.20;99.90;;;;;;5072321;28;20728;-82
2021/01/18 06:42:57;;;;;;;30.20;20.00;;;0.20;99.90;;;;;;5072361;28;20265;-80
2021/01/18 06:45:31;;;;;;;38.83;23.43;;;0.30;99.90;;;;;;5072492;28;20230;-79
2021/01/18 06:47:58;;;;;;;74.37;46.43;;;0.30;99.90;;;;;;5068778;28;21361;-80
2021/01/18 06:50:29;;;;;;;100.93;55.87;;;0.30;99.90;;;;;;5070297;28;20684;-78
2021/01/18 06:52:56;;;;;;;84.43;51.43;;;0.40;99.90;;;;;;5070647;28;20223;-80
2021/01/18 06:55:26;;;;;;;70.73;42.20;;;0.50;99.90;;;;;;5057008;28;20200;-80
2021/01/18 06:58:17;;;;;;;54.80;34.80;;;0.50;99.90;;;;;;5076506;28;20241;-80
2021/01/18 07:00:47;;;;;;;41.20;28.73;;;0.60;99.90;;;;;;5064172;28;20289;-80
2021/01/18 07:03:37;;;;;;;31.83;21.53;;;0.60;99.90;;;;;;5072237;28;20305;-80
2021/01/18 07:06:23;;;;;;;30.60;20.57;;;0.60;99.90;;;;;;5059150;28;20261;-80
2021/01/18 07:08:52;;;;;;;27.00;19.17;;;0.70;99.90;;;;;;5080682;28;20625;-80
2021/01/18 07:11:19;;;;;;;31.43;19.50;;;0.70;99.90;;;;;;5067131;28;20278;-81
2021/01/18 07:13:49;;;;;;;29.60;18.50;;;0.60;99.90;;;;;;5072313;28;20248;-82
2021/01/18 07:16:18;;;;;;;28.87;19.77;;;0.60;99.90;;;;;;5063108;28;20626;-82
2021/01/18 07:18:50;;;;;;;61.53;38.90;;;0.60;99.90;;;;;;5061355;28;20267;-81
2021/01/18 07:21:19;;;;;;;57.30;34.83;;;0.60;99.90;;;;;;5074405;28;20264;-80
2021/01/18 07:23:54;;;;;;;43.23;27.37;;;0.70;99.90;;;;;;5071401;28;20250;-80
2021/01/18 07:26:53;;;;;;;39.37;26.67;;;0.80;99.90;;;;;;5065177;28;20256;-81
2021/01/18 07:29:21;;;;;;;40.60;24.67;;;0.90;99.90;;;;;;5067371;28;20697;-81
2021/01/18 07:31:51;;;;;;;41.40;25.37;;;0.90;99.90;;;;;;5056425;28;20227;-81
2021/01/18 07:34:21;;;;;;;35.47;23.77;;;1.00;99.90;;;;;;5059444;28;20723;-80
2021/01/18 07:36:48;;;;;;;41.50;24.00;;;1.00;99.90;;;;;;5063128;28;20195;-81
2021/01/18 07:39:26;;;;;;;26.77;17.97;;;1.10;99.90;;;;;;5071712;28;20227;-80
2021/01/18 07:41:52;;;;;;;28.47;17.97;;;1.00;99.90;;;;;;5068125;28;20278;-79
2021/01/18 07:44:35;;;;;;;26.43;18.00;;;1.00;99.90;;;;;;5071902;28;20272;-79
2021/01/18 07:47:04;;;;;;;31.50;18.40;;;1.00;99.90;;;;;;5062271;28;20199;-79
2021/01/18 07:49:46;;;;;;;26.03;18.00;;;1.10;99.90;;;;;;5071547;28;20286;-80
2021/01/18 07:52:25;;;;;;;30.90;18.07;;;1.10;99.90;;;;;;5069431;28;20202;-79
2021/01/18 07:54:51;;;;;;;25.43;16.47;;;1.20;99.90;;;;;;5060074;28;20287;-79
2021/01/18 07:57:32;;;;;;;23.10;16.27;;;1.20;99.90;;;;;;5053697;28;20224;-79
2021/01/18 08:00:35;;;;;;;26.17;16.70;;;1.30;99.90;;;;;;5070274;28;20708;-77
2021/01/18 08:03:26;;;;;;;24.10;16.83;;;1.40;99.90;;;;;;5067580;28;20297;-81
2021/01/18 08:06:12;;;;;;;34.23;19.00;;;1.50;99.90;;;;;;5071008;28;20697;-81
2021/01/18 08:08:39;;;;;;;36.87;20.43;;;1.70;99.90;;;;;;5067743;28;20285;-81
2021/01/18 08:11:19;;;;;;;37.20;19.30;;;1.80;99.90;;;;;;5063051;28;20253;-81
2021/01/18 08:14:00;;;;;;;27.33;16.37;;;1.90;99.90;;;;;;5065899;28;20195;-81
2021/01/18 08:16:41;;;;;;;21.97;13.63;;;2.10;99.90;;;;;;5054505;28;20676;-81
2021/01/18 08:19:18;;;;;;;26.30;13.00;;;2.20;99.90;;;;;;5068601;28;20240;-81
2021/01/18 08:21:56;;;;;;;21.40;13.90;;;2.30;99.90;;;;;;5071819;28;20234;-81
2021/01/18 08:24:56;;;;;;;26.07;14.10;;;2.50;99.90;;;;;;5071762;28;20227;-82
2021/01/18 08:27:39;;;;;;;26.80;14.80;;;2.60;99.90;;;;;;5044291;28;20217;-82
2021/01/18 08:30:20;;;;;;;30.87;13.63;;;2.60;99.90;;;;;;5057701;28;20672;-82
2021/01/18 08:32:59;;;;;;;27.63;15.67;;;2.70;99.90;;;;;;5058800;28;20677;-82
2021/01/18 08:35:32;;;;;;;29.53;16.97;;;2.80;99.90;;;;;;5056845;28;20254;-82
2021/01/18 08:38:03;;;;;;;30.23;18.13;;;2.90;99.90;;;;;;5065299;28;20286;-81
2021/01/18 08:40:41;;;;;;;28.70;16.57;;;3.00;99.90;;;;;;5064942;28;20204;-80
2021/01/18 08:43:08;;;;;;;25.70;12.80;;;3.00;99.90;;;;;;5085113;27;20592;-82
2021/01/18 08:45:37;;;;;;;24.20;13.03;;;3.10;99.90;;;;;;5075651;28;20298;-80
2021/01/18 08:48:06;;;;;;;27.07;14.50;;;3.10;99.90;;;;;;5062825;28;20241;-82
2021/01/18 08:50:37;;;;;;;25.83;14.57;;;3.20;99.90;;;;;;5070506;28;20292;-82
2021/01/18 08:53:23;;;;;;;26.80;15.77;;;3.30;99.90;;;;;;5064929;28;20203;-81
2021/01/18 08:55:51;;;;;;;27.90;13.23;;;3.30;99.90;;;;;;5066755;28;20295;-82
2021/01/18 08:58:48;;;;;;;25.27;12.67;;;3.40;99.90;;;;;;5067543;28;20227;-82
2021/01/18 09:01:20;;;;;;;23.60;12.37;;;3.40;99.90;;;;;;5069262;28;20285;-81
2021/01/18 09:03:55;;;;;;;18.73;12.33;;;3.50;99.90;;;;;;5086716;28;20222;-81
2021/01/18 09:06:23;;;;;;;23.70;12.53;;;3.50;99.90;;;;;;5059438;28;20238;-81
2021/01/18 09:08:49;;;;;;;22.60;11.70;;;3.50;99.90;;;;;;5071221;28;20238;-81
2021/01/18 09:11:16;;;;;;;20.73;10.47;;;3.50;99.90;;;;;;5061361;28;20253;-81
2021/01/18 09:13:42;;;;;;;22.33;10.70;;;3.60;99.90;;;;;;5072956;28;20236;-81
2021/01/18 09:16:10;;;;;;;21.43;10.57;;;3.60;99.90;;;;;;5067961;28;20231;-81
2021/01/18 09:18:37;;;;;;;23.43;11.23;;;3.70;99.90;;;;;;5057780;28;20678;-80
2021/01/18 09:21:08;;;;;;;16.80;10.43;;;3.80;99.90;;;;;;5073142;28;20335;-81
2021/01/18 09:23:36;;;;;;;19.97;11.27;;;3.90;99.90;;;;;;5073176;28;20229;-80
2021/01/18 09:26:07;;;;;;;23.23;11.30;;;4.00;99.90;;;;;;5068474;28;20278;-81
2021/01/18 09:28:34;;;;;;;21.97;12.23;;;4.10;99.90;;;;;;5062183;28;20200;-81
2021/01/18 09:31:09;;;;;;;21.93;13.13;;;4.30;99.90;;;;;;5054544;28;20623;-81
2021/01/18 09:33:37;;;;;;;21.90;12.97;;;4.40;99.90;;;;;;5056959;28;20238;-81
2021/01/18 09:36:04;;;;;;;21.97;11.60;;;4.50;99.90;;;;;;5069268;28;20233;-80
2021/01/18 09:38:30;;;;;;;19.00;11.97;;;4.50;99.90;;;;;;5067751;28;20298;-81
2021/01/18 09:41:00;;;;;;;19.80;11.63;;;4.30;99.90;;;;;;5069402;28;20296;-81
2021/01/18 09:43:29;;;;;;;17.90;10.80;;;4.00;99.90;;;;;;5067620;28;20771;-81
2021/01/18 09:45:57;;;;;;;18.60;11.53;;;4.00;99.90;;;;;;5064892;28;20205;-81
2021/01/18 09:48:27;;;;;;;23.57;13.20;;;4.20;99.90;;;;;;5067001;28;20224;-81
2021/01/18 09:51:05;;;;;;;17.97;12.03;;;4.30;99.90;;;;;;5072946;28;20226;-81
2021/01/18 09:53:32;;;;;;;16.33;11.43;;;4.50;99.90;;;;;;5068043;28;20627;-81
2021/01/18 09:56:01;;;;;;;24.00;13.97;;;4.70;99.90;;;;;;5066455;28;20251;-79
2021/01/18 09:58:38;;;;;;;36.00;19.73;;;4.70;99.90;;;;;;5068841;28;20260;-81
2021/01/18 10:01:09;;;;;;;22.97;14.63;;;4.80;99.90;;;;;;5064194;28;20222;-81
2021/01/18 10:03:37;;;;;;;18.50;12.43;;;4.90;99.90;;;;;;5073147;28;20301;-80
2021/01/18 10:06:06;;;;;;;21.40;11.40;;;4.90;99.90;;;;;;5105540;28;20199;-80
2021/01/18 10:08:34;;;;;;;21.67;12.97;;;5.00;99.90;;;;;;5065395;28;20227;-81
2021/01/18 10:11:01;;;;;;;18.87;11.20;;;5.00;99.90;;;;;;5056066;28;20228;-81
2021/01/18 10:13:28;;;;;;;17.43;10.10;;;5.10;99.90;;;;;;5065585;28;20226;-81
2021/01/18 10:15:55;;;;;;;15.17;9.97;;;5.00;99.90;;;;;;5067167;28;20693;-80
2021/01/18 10:18:33;;;;;;;19.20;9.73;;;5.10;99.90;;;;;;5068378;28;20338;-81
2021/01/18 10:21:00;;;;;;;19.57;11.67;;;5.30;99.90;;;;;;5077775;28;20224;-81
2021/01/18 10:23:31;;;;;;;17.97;9.97;;;5.40;99.90;;;;;;5070422;28;20215;-81
2021/01/18 10:26:17;;;;;;;15.03;9.93;;;5.60;99.90;;;;;;5069384;28;20627;-80
2021/01/18 10:28:54;;;;;;;16.63;11.17;;;5.70;99.90;;;;;;5058538;28;20240;-80
2021/01/18 10:31:21;;;;;;;21.00;11.33;;;6.10;99.90;;;;;;5063805;28;20208;-81
2021/01/18 10:34:12;;;;;;;19.30;10.90;;;6.50;99.90;;;;;;5067507;28;20195;-83
2021/01/18 10:36:40;;;;;;;15.33;8.03;;;6.80;99.90;;;;;;5067586;28;20366;-82
2021/01/18 10:39:06;;;;;;;12.07;6.83;;;7.00;99.90;;;;;;5064661;28;20197;-82
2021/01/18 10:41:35;;;;;;;12.67;6.30;;;7.20;99.90;;;;;;5061371;28;20249;-82
2021/01/18 10:44:06;;;;;;;11.13;7.03;;;7.20;99.90;;;;;;5066655;28;20699;-82
2021/01/18 10:46:33;;;;;;;13.40;7.30;;;7.30;99.90;;;;;;5056811;28;20298;-83
2021/01/18 10:49:00;;;;;;;12.80;6.53;;;7.30;99.90;;;;;;5070231;28;20292;-83
2021/01/18 10:51:27;;;;;;;12.80;6.50;;;7.40;99.90;;;;;;5072893;28;20231;-83
2021/01/18 10:53:57;;;;;;;16.37;6.90;;;7.40;99.90;;;;;;5067000;28;20659;-83
2021/01/18 10:56:31;;;;;;;15.27;7.63;;;7.50;99.90;;;;;;5064495;28;20293;-82
2021/01/18 10:59:00;;;;;;;12.63;7.17;;;7.40;99.90;;;;;;5058976;28;20734;-82
2021/01/18 11:01:27;;;;;;;13.70;7.70;;;7.40;99.90;;;;;;5064035;28;20203;-82
2021/01/18 11:04:03;;;;;;;15.47;7.77;;;7.50;99.90;;;;;;5070855;28;20662;-82
2021/01/18 11:06:35;;;;;;;13.43;7.87;;;7.80;99.90;;;;;;5084264;28;20260;-83
2021/01/18 11:09:01;;;;;;;15.03;7.20;;;7.90;99.90;;;;;;5072146;28;20211;-82
2021/01/18 11:11:29;;;;;;;13.00;7.23;;;8.00;99.90;;;;;;5080382;28;20745;-82
2021/01/18 11:14:01;;;;;;;11.30;7.47;;;8.10;99.90;;;;;;5069949;28;20195;-83
2021/01/18 11:16:28;;;;;;;16.77;8.13;;;8.30;99.90;;;;;;5068168;28;20223;-83
2021/01/18 11:19:00;;;;;;;20.50;9.53;;;8.60;99.90;;;;;;5074211;28;20306;-82
2021/01/18 11:21:27;;;;;;;15.10;7.37;;;8.80;99.90;;;;;;5063971;28;20212;-83
2021/01/18 11:23:55;;;;;;;15.80;6.70;;;8.80;99.90;;;;;;5074637;28;20229;-83
2021/01/18 11:26:21;;;;;;;16.53;6.73;;;8.50;99.90;;;;;;5074650;28;20749;-82
2021/01/18 11:28:48;;;;;;;14.20;7.03;;;8.50;99.90;;;;;;5057283;28;20327;-82
2021/01/18 11:31:16;;;;;;;14.57;6.43;;;8.40;99.90;;;;;;5057448;28;20231;-82
2021/01/18 11:33:44;;;;;;;13.53;6.73;;;8.50;99.90;;;;;;5060978;28;20223;-81
2021/01/18 11:36:11;;;;;;;11.77;6.53;;;8.50;99.90;;;;;;5067638;28;20577;-80
2021/01/18 11:38:37;;;;;;;16.63;7.13;;;8.50;99.90;;;;;;5058241;28;20282;-81
2021/01/18 11:41:04;;;;;;;12.70;6.00;;;8.40;99.90;;;;;;5064764;28;20284;-82
2021/01/18 11:43:32;;;;;;;13.57;5.97;;;8.30;99.90;;;;;;5063538;28;20257;-81
2021/01/18 11:45:59;;;;;;;13.87;6.40;;;8.50;99.90;;;;;;5071244;28;20292;-82
2021/01/18 11:48:26;;;;;;;11.07;5.93;;;8.80;99.90;;;;;;5063589;28;20238;-82
2021/01/18 11:50:53;;;;;;;13.47;5.80;;;9.30;99.90;;;;;;5056255;28;20228;-82
2021/01/18 11:53:19;;;;;;;14.07;5.67;;;9.70;99.90;;;;;;5057366;28;20272;-81
2021/01/18 11:55:47;;;;;;;10.93;5.13;;;10.00;99.90;;;;;;5076289;28;20212;-80
2021/01/18 11:58:14;;;;;;;10.97;5.10;;;10.20;99.90;;;;;;5091850;28;20335;-81
2021/01/18 12:00:41;;;;;;;12.33;5.83;;;10.10;99.90;;;;;;5074605;28;20242;-81
2021/01/18 12:03:08;;;;;;;13.10;4.90;;;10.10;99.90;;;;;;5055855;28;20222;-81
2021/01/18 12:05:35;;;;;;;15.43;6.07;;;10.10;99.90;;;;;;5082691;28;20230;-80
2021/01/18 12:08:03;;;;;;;9.67;5.67;;;10.20;99.90;;;;;;5061035;28;20234;-81
2021/01/18 12:10:32;;;;;;;10.57;5.50;;;10.20;99.90;;;;;;5063462;28;20215;-81
2021/01/18 12:12:58;;;;;;;12.80;6.27;;;10.00;99.90;;;;;;5054615;28;20208;-81
2021/01/18 12:15:25;;;;;;;16.20;6.20;;;9.60;99.90;;;;;;5072537;28;20223;-82
2021/01/18 12:17:51;;;;;;;14.03;5.70;;;9.40;99.90;;;;;;5057091;28;20238;-81
2021/01/18 12:20:19;;;;;;;10.37;5.47;;;9.30;99.90;;;;;;5072331;28;20270;-81
2021/01/18 12:22:47;;;;;;;12.60;5.37;;;9.50;99.90;;;;;;5059128;28;20297;-81
2021/01/18 12:25:14;;;;;;;11.73;4.40;;;9.30;99.90;;;;;;5059219;28;20222;-81
2021/01/18 12:27:41;;;;;;;11.63;4.27;;;9.40;99.90;;;;;;5058553;28;20225;-80
2021/01/18 12:30:09;;;;;;;12.50;3.90;;;9.60;99.90;;;;;;5068888;28;20237;-81
2021/01/18 12:32:35;;;;;;;16.03;4.87;;;9.60;99.90;;;;;;5068235;28;20234;-81
2021/01/18 12:35:01;;;;;;;16.57;4.53;;;9.70;99.90;;;;;;5058398;28;20224;-80
2021/01/18 12:37:28;;;;;;;11.70;5.03;;;9.90;99.90;;;;;;5074244;28;20221;-80
2021/01/18 12:39:55;;;;;;;13.30;4.97;;;10.20;99.90;;;;;;5068025;28;20682;-80
2021/01/18 12:42:21;;;;;;;12.73;5.20;;;10.40;99.90;;;;;;5065547;28;20657;-81
2021/01/18 12:44:48;;;;;;;15.63;5.10;;;10.80;99.90;;;;;;5072122;28;20333;-81
2021/01/18 12:47:14;;;;;;;13.23;5.27;;;10.50;99.90;;;;;;5074052;28;20230;-81
2021/01/18 12:49:41;;;;;;;16.47;4.90;;;10.10;99.90;;;;;;5075040;28;20287;-81
2021/01/18 12:52:09;;;;;;;11.20;4.30;;;9.70;99.90;;;;;;5073815;28;20626;-81
2021/01/18 12:54:36;;;;;;;14.03;5.00;;;9.40;99.90;;;;;;5059977;28;20223;-80
2021/01/18 12:57:04;;;;;;;10.23;5.43;;;9.70;99.90;;;;;;5076170;28;20742;-81